sensor_id;sensor_type;location;lat;lon;timestamp;P1;durP1;ratioP1;P2;durP2;ratioP2
59854;SDS011;45732;52.850;6.896;2022-12-29T00:01:48;8.38;;;6.05;;
59854;SDS011;45732;52.850;6.896;2022-12-29T00:04:14;7.68;;;5.90;;
59854;SDS011;45732;52.850;6.896;2022-12-29T00:06:41;7.65;;;5.32;;
59854;SDS011;45732;52.850;6.896;2022-12-29T00:09:08;7.78;;;5.28;;
59854;SDS011;45732;52.850;6.896;2022-12-29T00:11:35;8.13;;;5.05;;
59854;SDS011;45732;52.850;6.896;2022-12-29T00:14:04;7.65;;;5.30;;
59854;SDS011;45732;52.850;6.896;2022-12-29T00:16:48;8.43;;;5.53;;
59854;SDS011;45732;52.850;6.896;2022-12-29T00:19:14;8.70;;;5.55;;
59854;SDS011;45732;52.850;6.896;2022-12-29T00:21:58;8.23;;;5.38;;
59854;SDS011;45732;52.850;6.896;2022-12-29T00:24:43;8.10;;;5.65;;
59854;SDS011;45732;52.850;6.896;2022-12-29T00:27:28;7.55;;;5.70;;
59854;SDS011;45732;52.850;6.896;2022-12-29T00:30:15;8.85;;;5.28;;
59854;SDS011;45732;52.850;6.896;2022-12-29T00:33:11;8.45;;;5.68;;
59854;SDS011;45732;52.850;6.896;2022-12-29T00:36:01;7.45;;;5.55;;
59854;SDS011;45732;52.850;6.896;2022-12-29T00:38:51;8.38;;;5.38;;
59854;SDS011;45732;52.850;6.896;2022-12-29T00:41:39;9.57;;;6.07;;
59854;SDS011;45732;52.850;6.896;2022-12-29T00:44:24;9.32;;;5.82;;
59854;SDS011;45732;52.850;6.896;2022-12-29T00:46:49;8.63;;;5.45;;
59854;SDS011;45732;52.850;6.896;2022-12-29T00:49:15;7.55;;;5.35;;
59854;SDS011;45732;52.850;6.896;2022-12-29T00:51:57;10.07;;;5.60;;
59854;SDS011;45732;52.850;6.896;2022-12-29T00:54:31;7.47;;;5.28;;
59854;SDS011;45732;52.850;6.896;2022-12-29T00:56:58;7.03;;;5.07;;
59854;SDS011;45732;52.850;6.896;2022-12-29T00:59:24;7.82;;;4.72;;
59854;SDS011;45732;52.850;6.896;2022-12-29T01:01:51;7.22;;;5.22;;
59854;SDS011;45732;52.850;6.896;2022-12-29T01:04:17;7.90;;;4.95;;
59854;SDS011;45732;52.850;6.896;2022-12-29T01:06:44;6.57;;;4.50;;
59854;SDS011;45732;52.850;6.896;2022-12-29T01:09:10;7.05;;;4.55;;
59854;SDS011;45732;52.850;6.896;2022-12-29T01:11:55;9.40;;;4.65;;
59854;SDS011;45732;52.850;6.896;2022-12-29T01:14:21;7.43;;;4.65;;
59854;SDS011;45732;52.850;6.896;2022-12-29T01:16:47;6.88;;;4.20;;
59854;SDS011;45732;52.850;6.896;2022-12-29T01:19:14;7.40;;;4.25;;
59854;SDS011;45732;52.850;6.896;2022-12-29T01:21:40;7.38;;;3.85;;
59854;SDS011;45732;52.850;6.896;2022-12-29T01:24:06;5.85;;;3.85;;
59854;SDS011;45732;52.850;6.896;2022-12-29T01:26:32;8.35;;;4.00;;
59854;SDS011;45732;52.850;6.896;2022-12-29T01:28:58;9.82;;;3.53;;
59854;SDS011;45732;52.850;6.896;2022-12-29T01:31:23;5.80;;;3.72;;
59854;SDS011;45732;52.850;6.896;2022-12-29T01:33:49;5.82;;;3.35;;
59854;SDS011;45732;52.850;6.896;2022-12-29T01:36:16;5.28;;;3.22;;
59854;SDS011;45732;52.850;6.896;2022-12-29T01:38:42;6.20;;;3.45;;
59854;SDS011;45732;52.850;6.896;2022-12-29T01:41:09;4.82;;;3.13;;
59854;SDS011;45732;52.850;6.896;2022-12-29T01:43:40;5.53;;;3.50;;
59854;SDS011;45732;52.850;6.896;2022-12-29T01:46:08;5.68;;;3.28;;
59854;SDS011;45732;52.850;6.896;2022-12-29T01:48:44;5.55;;;3.50;;
59854;SDS011;45732;52.850;6.896;2022-12-29T01:51:12;6.45;;;3.15;;
59854;SDS011;45732;52.850;6.896;2022-12-29T01:53:38;7.30;;;3.40;;
59854;SDS011;45732;52.850;6.896;2022-12-29T01:56:05;6.15;;;3.50;;
59854;SDS011;45732;52.850;6.896;2022-12-29T01:58:33;5.57;;;3.25;;
59854;SDS011;45732;52.850;6.896;2022-12-29T02:01:03;4.60;;;3.17;;
59854;SDS011;45732;52.850;6.896;2022-12-29T02:03:29;4.65;;;3.03;;
59854;SDS011;45732;52.850;6.896;2022-12-29T02:08:52;5.53;;;3.15;;
59854;SDS011;45732;52.850;6.896;2022-12-29T02:11:20;4.60;;;2.83;;
59854;SDS011;45732;52.850;6.896;2022-12-29T02:13:49;5.75;;;3.22;;
59854;SDS011;45732;52.850;6.896;2022-12-29T02:19:12;6.75;;;2.80;;
59854;SDS011;45732;52.850;6.896;2022-12-29T02:22:07;4.18;;;2.60;;
59854;SDS011;45732;52.850;6.896;2022-12-29T02:30:31;6.05;;;2.47;;
59854;SDS011;45732;52.850;6.896;2022-12-29T02:46:16;6.13;;;3.08;;
59854;SDS011;45732;52.850;6.896;2022-12-29T02:48:48;3.70;;;2.47;;
59854;SDS011;45732;52.850;6.896;2022-12-29T02:51:28;4.80;;;2.70;;
59854;SDS011;45732;52.850;6.896;2022-12-29T02:53:59;4.28;;;2.38;;
59854;SDS011;45732;52.850;6.896;2022-12-29T02:56:43;4.20;;;2.63;;
59854;SDS011;45732;52.850;6.896;2022-12-29T02:59:09;5.25;;;2.80;;
59854;SDS011;45732;52.850;6.896;2022-12-29T03:24:31;4.22;;;2.65;;
59854;SDS011;45732;52.850;6.896;2022-12-29T03:27:02;4.30;;;2.63;;
59854;SDS011;45732;52.850;6.896;2022-12-29T03:29:32;3.85;;;2.42;;
59854;SDS011;45732;52.850;6.896;2022-12-29T03:32:00;6.30;;;2.78;;
59854;SDS011;45732;52.850;6.896;2022-12-29T03:34:28;3.72;;;2.25;;
59854;SDS011;45732;52.850;6.896;2022-12-29T03:37:03;5.55;;;2.40;;
59854;SDS011;45732;52.850;6.896;2022-12-29T03:39:34;5.72;;;2.70;;
59854;SDS011;45732;52.850;6.896;2022-12-29T03:42:05;5.43;;;2.63;;
59854;SDS011;45732;52.850;6.896;2022-12-29T03:44:35;5.82;;;2.55;;
59854;SDS011;45732;52.850;6.896;2022-12-29T03:47:04;6.72;;;2.83;;
59854;SDS011;45732;52.850;6.896;2022-12-29T03:49:31;5.13;;;2.45;;
59854;SDS011;45732;52.850;6.896;2022-12-29T03:51:58;5.90;;;2.40;;
59854;SDS011;45732;52.850;6.896;2022-12-29T03:54:23;5.03;;;2.28;;
59854;SDS011;45732;52.850;6.896;2022-12-29T03:56:50;4.43;;;1.90;;
59854;SDS011;45732;52.850;6.896;2022-12-29T03:59:15;4.95;;;2.15;;
59854;SDS011;45732;52.850;6.896;2022-12-29T04:01:41;5.35;;;1.70;;
59854;SDS011;45732;52.850;6.896;2022-12-29T04:04:07;3.97;;;1.50;;
59854;SDS011;45732;52.850;6.896;2022-12-29T04:06:33;5.35;;;1.70;;
59854;SDS011;45732;52.850;6.896;2022-12-29T04:08:58;4.90;;;1.80;;
59854;SDS011;45732;52.850;6.896;2022-12-29T04:11:24;4.28;;;1.55;;
59854;SDS011;45732;52.850;6.896;2022-12-29T04:13:50;3.30;;;1.48;;
59854;SDS011;45732;52.850;6.896;2022-12-29T04:16:16;6.88;;;1.67;;
59854;SDS011;45732;52.850;6.896;2022-12-29T04:18:41;4.30;;;1.48;;
59854;SDS011;45732;52.850;6.896;2022-12-29T04:21:07;3.83;;;1.50;;
59854;SDS011;45732;52.850;6.896;2022-12-29T04:23:34;4.78;;;1.30;;
59854;SDS011;45732;52.850;6.896;2022-12-29T04:26:02;5.88;;;1.40;;
59854;SDS011;45732;52.850;6.896;2022-12-29T04:28:29;4.38;;;1.20;;
59854;SDS011;45732;52.850;6.896;2022-12-29T04:30:55;7.28;;;1.40;;
59854;SDS011;45732;52.850;6.896;2022-12-29T04:33:21;4.28;;;1.10;;
59854;SDS011;45732;52.850;6.896;2022-12-29T04:35:47;6.68;;;1.30;;
59854;SDS011;45732;52.850;6.896;2022-12-29T04:38:13;4.65;;;1.20;;
59854;SDS011;45732;52.850;6.896;2022-12-29T04:40:40;7.47;;;1.67;;
59854;SDS011;45732;52.850;6.896;2022-12-29T04:43:07;3.00;;;1.45;;
59854;SDS011;45732;52.850;6.896;2022-12-29T04:45:33;3.42;;;1.05;;
59854;SDS011;45732;52.850;6.896;2022-12-29T04:47:59;5.10;;;1.38;;
59854;SDS011;45732;52.850;6.896;2022-12-29T04:50:24;4.28;;;1.38;;
59854;SDS011;45732;52.850;6.896;2022-12-29T04:52:50;3.40;;;1.10;;
59854;SDS011;45732;52.850;6.896;2022-12-29T04:55:16;3.58;;;0.90;;
59854;SDS011;45732;52.850;6.896;2022-12-29T04:57:42;5.30;;;1.10;;
59854;SDS011;45732;52.850;6.896;2022-12-29T05:00:07;4.57;;;1.40;;
59854;SDS011;45732;52.850;6.896;2022-12-29T05:02:34;7.72;;;1.92;;
59854;SDS011;45732;52.850;6.896;2022-12-29T05:05:00;3.67;;;1.10;;
59854;SDS011;45732;52.850;6.896;2022-12-29T05:07:26;4.95;;;1.30;;
59854;SDS011;45732;52.850;6.896;2022-12-29T05:09:52;4.88;;;1.20;;
59854;SDS011;45732;52.850;6.896;2022-12-29T05:12:18;8.25;;;1.70;;
59854;SDS011;45732;52.850;6.896;2022-12-29T05:14:43;6.30;;;1.48;;
59854;SDS011;45732;52.850;6.896;2022-12-29T05:17:09;5.43;;;1.45;;
59854;SDS011;45732;52.850;6.896;2022-12-29T05:19:35;5.55;;;1.38;;
59854;SDS011;45732;52.850;6.896;2022-12-29T05:22:01;6.10;;;1.52;;
59854;SDS011;45732;52.850;6.896;2022-12-29T05:24:26;6.45;;;1.25;;
59854;SDS011;45732;52.850;6.896;2022-12-29T05:26:52;5.65;;;1.40;;
59854;SDS011;45732;52.850;6.896;2022-12-29T05:29:18;5.53;;;1.30;;
59854;SDS011;45732;52.850;6.896;2022-12-29T05:31:43;6.88;;;1.70;;
59854;SDS011;45732;52.850;6.896;2022-12-29T05:34:10;4.07;;;1.30;;
59854;SDS011;45732;52.850;6.896;2022-12-29T05:36:36;7.78;;;1.40;;
59854;SDS011;45732;52.850;6.896;2022-12-29T05:39:02;6.25;;;1.90;;
59854;SDS011;45732;52.850;6.896;2022-12-29T05:41:28;6.55;;;1.52;;
59854;SDS011;45732;52.850;6.896;2022-12-29T05:43:54;4.20;;;1.50;;
59854;SDS011;45732;52.850;6.896;2022-12-29T05:46:20;8.30;;;1.63;;
59854;SDS011;45732;52.850;6.896;2022-12-29T05:48:45;4.60;;;1.60;;
59854;SDS011;45732;52.850;6.896;2022-12-29T05:51:11;5.25;;;1.60;;
59854;SDS011;45732;52.850;6.896;2022-12-29T05:53:37;5.53;;;1.50;;
59854;SDS011;45732;52.850;6.896;2022-12-29T05:56:02;5.72;;;1.63;;
59854;SDS011;45732;52.850;6.896;2022-12-29T05:58:28;5.38;;;1.63;;
59854;SDS011;45732;52.850;6.896;2022-12-29T06:00:54;7.55;;;1.58;;
59854;SDS011;45732;52.850;6.896;2022-12-29T06:03:19;5.65;;;1.60;;
59854;SDS011;45732;52.850;6.896;2022-12-29T06:05:45;4.63;;;1.80;;
59854;SDS011;45732;52.850;6.896;2022-12-29T06:08:11;3.95;;;1.35;;
59854;SDS011;45732;52.850;6.896;2022-12-29T06:10:37;6.22;;;1.77;;
59854;SDS011;45732;52.850;6.896;2022-12-29T06:13:03;5.90;;;1.30;;
59854;SDS011;45732;52.850;6.896;2022-12-29T06:15:31;4.00;;;1.40;;
59854;SDS011;45732;52.850;6.896;2022-12-29T06:17:57;7.07;;;1.30;;
59854;SDS011;45732;52.850;6.896;2022-12-29T06:20:22;4.60;;;1.50;;
59854;SDS011;45732;52.850;6.896;2022-12-29T06:22:48;6.38;;;1.30;;
59854;SDS011;45732;52.850;6.896;2022-12-29T06:25:14;8.00;;;1.52;;
59854;SDS011;45732;52.850;6.896;2022-12-29T06:27:40;8.38;;;1.63;;
59854;SDS011;45732;52.850;6.896;2022-12-29T06:30:07;8.27;;;1.58;;
59854;SDS011;45732;52.850;6.896;2022-12-29T06:32:34;6.68;;;1.48;;
59854;SDS011;45732;52.850;6.896;2022-12-29T06:35:00;8.50;;;1.58;;
59854;SDS011;45732;52.850;6.896;2022-12-29T06:37:26;9.13;;;1.33;;
59854;SDS011;45732;52.850;6.896;2022-12-29T06:39:51;7.32;;;1.20;;
59854;SDS011;45732;52.850;6.896;2022-12-29T06:42:17;8.20;;;1.63;;
59854;SDS011;45732;52.850;6.896;2022-12-29T06:44:43;6.00;;;1.52;;
59854;SDS011;45732;52.850;6.896;2022-12-29T06:47:09;7.13;;;1.50;;
59854;SDS011;45732;52.850;6.896;2022-12-29T06:49:35;5.93;;;1.45;;
59854;SDS011;45732;52.850;6.896;2022-12-29T06:52:00;4.28;;;1.38;;
59854;SDS011;45732;52.850;6.896;2022-12-29T06:54:29;5.78;;;1.25;;
59854;SDS011;45732;52.850;6.896;2022-12-29T06:56:57;5.80;;;1.30;;
59854;SDS011;45732;52.850;6.896;2022-12-29T06:59:23;5.72;;;1.38;;
59854;SDS011;45732;52.850;6.896;2022-12-29T07:01:50;8.82;;;1.55;;
59854;SDS011;45732;52.850;6.896;2022-12-29T07:04:16;10.00;;;1.90;;
59854;SDS011;45732;52.850;6.896;2022-12-29T07:06:42;7.32;;;1.50;;
59854;SDS011;45732;52.850;6.896;2022-12-29T07:09:08;8.55;;;1.42;;
59854;SDS011;45732;52.850;6.896;2022-12-29T07:11:34;10.40;;;2.17;;
59854;SDS011;45732;52.850;6.896;2022-12-29T07:14:00;9.32;;;1.85;;
59854;SDS011;45732;52.850;6.896;2022-12-29T07:16:26;7.40;;;1.80;;
59854;SDS011;45732;52.850;6.896;2022-12-29T07:18:51;10.10;;;1.92;;
59854;SDS011;45732;52.850;6.896;2022-12-29T07:21:18;11.90;;;1.92;;
59854;SDS011;45732;52.850;6.896;2022-12-29T07:23:43;10.18;;;2.10;;
59854;SDS011;45732;52.850;6.896;2022-12-29T07:26:10;10.75;;;2.08;;
59854;SDS011;45732;52.850;6.896;2022-12-29T07:28:37;9.57;;;1.65;;
59854;SDS011;45732;52.850;6.896;2022-12-29T07:31:04;12.88;;;1.90;;
59854;SDS011;45732;52.850;6.896;2022-12-29T07:33:31;14.57;;;2.78;;
59854;SDS011;45732;52.850;6.896;2022-12-29T07:35:58;10.48;;;1.98;;
59854;SDS011;45732;52.850;6.896;2022-12-29T07:38:25;12.43;;;2.47;;
59854;SDS011;45732;52.850;6.896;2022-12-29T07:40:50;10.02;;;2.13;;
59854;SDS011;45732;52.850;6.896;2022-12-29T07:43:16;10.27;;;2.50;;
59854;SDS011;45732;52.850;6.896;2022-12-29T07:45:42;12.40;;;2.45;;
59854;SDS011;45732;52.850;6.896;2022-12-29T07:48:07;11.30;;;2.05;;
59854;SDS011;45732;52.850;6.896;2022-12-29T07:50:34;7.75;;;1.83;;
59854;SDS011;45732;52.850;6.896;2022-12-29T07:53:00;11.98;;;2.92;;
59854;SDS011;45732;52.850;6.896;2022-12-29T07:55:27;11.18;;;2.03;;
59854;SDS011;45732;52.850;6.896;2022-12-29T07:57:53;10.30;;;1.98;;
59854;SDS011;45732;52.850;6.896;2022-12-29T08:00:19;8.63;;;1.70;;
59854;SDS011;45732;52.850;6.896;2022-12-29T08:02:45;10.82;;;2.03;;
59854;SDS011;45732;52.850;6.896;2022-12-29T08:05:11;12.07;;;2.00;;
59854;SDS011;45732;52.850;6.896;2022-12-29T08:07:36;9.27;;;1.95;;
59854;SDS011;45732;52.850;6.896;2022-12-29T08:10:02;9.38;;;2.08;;
59854;SDS011;45732;52.850;6.896;2022-12-29T08:12:29;12.00;;;2.13;;
59854;SDS011;45732;52.850;6.896;2022-12-29T08:14:54;10.10;;;1.75;;
59854;SDS011;45732;52.850;6.896;2022-12-29T08:17:20;12.18;;;1.98;;
59854;SDS011;45732;52.850;6.896;2022-12-29T08:19:46;10.45;;;2.40;;
59854;SDS011;45732;52.850;6.896;2022-12-29T08:22:13;12.23;;;2.47;;
59854;SDS011;45732;52.850;6.896;2022-12-29T08:24:39;11.85;;;1.90;;
59854;SDS011;45732;52.850;6.896;2022-12-29T08:27:05;11.02;;;2.00;;
59854;SDS011;45732;52.850;6.896;2022-12-29T08:29:31;9.85;;;2.10;;
59854;SDS011;45732;52.850;6.896;2022-12-29T08:31:56;13.20;;;2.25;;
59854;SDS011;45732;52.850;6.896;2022-12-29T08:34:22;9.98;;;2.15;;
59854;SDS011;45732;52.850;6.896;2022-12-29T08:36:48;8.25;;;2.10;;
59854;SDS011;45732;52.850;6.896;2022-12-29T08:39:13;8.63;;;2.00;;
59854;SDS011;45732;52.850;6.896;2022-12-29T08:41:39;8.88;;;1.98;;
59854;SDS011;45732;52.850;6.896;2022-12-29T08:44:05;12.93;;;2.30;;
59854;SDS011;45732;52.850;6.896;2022-12-29T08:46:31;11.98;;;2.30;;
59854;SDS011;45732;52.850;6.896;2022-12-29T08:48:57;8.27;;;1.60;;
59854;SDS011;45732;52.850;6.896;2022-12-29T08:51:23;13.07;;;2.15;;
59854;SDS011;45732;52.850;6.896;2022-12-29T08:53:48;14.25;;;2.67;;
59854;SDS011;45732;52.850;6.896;2022-12-29T08:56:15;9.93;;;2.25;;
59854;SDS011;45732;52.850;6.896;2022-12-29T08:58:41;10.90;;;2.25;;
59854;SDS011;45732;52.850;6.896;2022-12-29T09:01:06;9.80;;;2.30;;
59854;SDS011;45732;52.850;6.896;2022-12-29T09:03:32;10.68;;;1.90;;
59854;SDS011;45732;52.850;6.896;2022-12-29T09:05:58;9.35;;;1.85;;
59854;SDS011;45732;52.850;6.896;2022-12-29T09:08:24;9.10;;;2.00;;
59854;SDS011;45732;52.850;6.896;2022-12-29T09:10:50;7.75;;;1.65;;
59854;SDS011;45732;52.850;6.896;2022-12-29T09:13:16;7.82;;;1.60;;
59854;SDS011;45732;52.850;6.896;2022-12-29T09:15:43;7.53;;;1.55;;
59854;SDS011;45732;52.850;6.896;2022-12-29T09:18:09;9.30;;;1.88;;
59854;SDS011;45732;52.850;6.896;2022-12-29T09:20:36;11.05;;;2.25;;
59854;SDS011;45732;52.850;6.896;2022-12-29T09:23:02;8.82;;;1.90;;
59854;SDS011;45732;52.850;6.896;2022-12-29T09:25:31;7.80;;;2.20;;
59854;SDS011;45732;52.850;6.896;2022-12-29T09:27:57;9.77;;;2.28;;
59854;SDS011;45732;52.850;6.896;2022-12-29T09:30:22;10.77;;;1.92;;
59854;SDS011;45732;52.850;6.896;2022-12-29T09:32:49;13.02;;;2.45;;
59854;SDS011;45732;52.850;6.896;2022-12-29T09:35:15;10.57;;;2.10;;
59854;SDS011;45732;52.850;6.896;2022-12-29T09:37:41;12.88;;;2.20;;
59854;SDS011;45732;52.850;6.896;2022-12-29T09:40:15;9.57;;;1.80;;
59854;SDS011;45732;52.850;6.896;2022-12-29T09:48:41;11.00;;;2.20;;
59854;SDS011;45732;52.850;6.896;2022-12-29T09:51:13;13.07;;;2.50;;
59854;SDS011;45732;52.850;6.896;2022-12-29T09:53:44;12.18;;;2.20;;
59854;SDS011;45732;52.850;6.896;2022-12-29T09:56:21;9.65;;;2.47;;
59854;SDS011;45732;52.850;6.896;2022-12-29T09:58:56;9.32;;;2.05;;
59854;SDS011;45732;52.850;6.896;2022-12-29T10:03:56;7.97;;;1.98;;
59854;SDS011;45732;52.850;6.896;2022-12-29T10:09:18;9.15;;;2.30;;
59854;SDS011;45732;52.850;6.896;2022-12-29T10:12:17;13.82;;;2.05;;
59854;SDS011;45732;52.850;6.896;2022-12-29T10:20:49;9.93;;;2.20;;
59854;SDS011;45732;52.850;6.896;2022-12-29T10:25:49;9.77;;;2.38;;
59854;SDS011;45732;52.850;6.896;2022-12-29T10:28:24;8.93;;;2.10;;
59854;SDS011;45732;52.850;6.896;2022-12-29T10:31:09;12.60;;;2.08;;
59854;SDS011;45732;52.850;6.896;2022-12-29T10:33:42;11.02;;;2.63;;
59854;SDS011;45732;52.850;6.896;2022-12-29T10:38:51;10.70;;;2.45;;
59854;SDS011;45732;52.850;6.896;2022-12-29T10:41:40;9.60;;;2.13;;
59854;SDS011;45732;52.850;6.896;2022-12-29T10:44:16;8.18;;;2.17;;
59854;SDS011;45732;52.850;6.896;2022-12-29T10:46:43;11.18;;;2.00;;
59854;SDS011;45732;52.850;6.896;2022-12-29T10:49:16;7.28;;;1.60;;
59854;SDS011;45732;52.850;6.896;2022-12-29T10:51:44;10.05;;;2.10;;
59854;SDS011;45732;52.850;6.896;2022-12-29T10:54:20;12.10;;;2.35;;
59854;SDS011;45732;52.850;6.896;2022-12-29T10:56:54;8.82;;;1.75;;
59854;SDS011;45732;52.850;6.896;2022-12-29T10:59:26;9.68;;;2.13;;
59854;SDS011;45732;52.850;6.896;2022-12-29T11:07:05;9.43;;;1.95;;
59854;SDS011;45732;52.850;6.896;2022-12-29T11:09:32;10.48;;;2.15;;
59854;SDS011;45732;52.850;6.896;2022-12-29T11:12:03;10.52;;;1.80;;
59854;SDS011;45732;52.850;6.896;2022-12-29T11:14:48;11.55;;;2.50;;
59854;SDS011;45732;52.850;6.896;2022-12-29T11:17:25;8.52;;;1.98;;
59854;SDS011;45732;52.850;6.896;2022-12-29T11:19:51;8.85;;;1.63;;
59854;SDS011;45732;52.850;6.896;2022-12-29T11:22:24;11.40;;;2.22;;
59854;SDS011;45732;52.850;6.896;2022-12-29T11:24:53;7.57;;;1.70;;
59854;SDS011;45732;52.850;6.896;2022-12-29T11:27:21;10.90;;;2.13;;
59854;SDS011;45732;52.850;6.896;2022-12-29T11:29:52;11.93;;;2.55;;
59854;SDS011;45732;52.850;6.896;2022-12-29T11:32:20;7.07;;;1.60;;
59854;SDS011;45732;52.850;6.896;2022-12-29T11:34:50;9.10;;;2.10;;
59854;SDS011;45732;52.850;6.896;2022-12-29T11:42:16;10.38;;;2.25;;
59854;SDS011;45732;52.850;6.896;2022-12-29T11:44:48;12.32;;;2.13;;
59854;SDS011;45732;52.850;6.896;2022-12-29T11:49:54;10.70;;;2.60;;
59854;SDS011;45732;52.850;6.896;2022-12-29T11:52:26;11.18;;;2.20;;
59854;SDS011;45732;52.850;6.896;2022-12-29T11:55:05;7.45;;;2.05;;
59854;SDS011;45732;52.850;6.896;2022-12-29T11:57:41;8.80;;;2.20;;
59854;SDS011;45732;52.850;6.896;2022-12-29T12:00:15;11.00;;;2.60;;
59854;SDS011;45732;52.850;6.896;2022-12-29T12:02:53;10.55;;;2.35;;
59854;SDS011;45732;52.850;6.896;2022-12-29T12:08:01;13.20;;;2.67;;
59854;SDS011;45732;52.850;6.896;2022-12-29T12:10:53;14.07;;;2.78;;
59854;SDS011;45732;52.850;6.896;2022-12-29T12:13:40;10.63;;;2.65;;
59854;SDS011;45732;52.850;6.896;2022-12-29T12:16:24;14.63;;;2.88;;
59854;SDS011;45732;52.850;6.896;2022-12-29T12:19:02;12.55;;;2.40;;
59854;SDS011;45732;52.850;6.896;2022-12-29T12:21:39;11.85;;;2.40;;
59854;SDS011;45732;52.850;6.896;2022-12-29T12:33:00;14.15;;;2.67;;
59854;SDS011;45732;52.850;6.896;2022-12-29T12:35:44;14.10;;;3.25;;
59854;SDS011;45732;52.850;6.896;2022-12-29T12:44:00;13.55;;;3.13;;
59854;SDS011;45732;52.850;6.896;2022-12-29T13:00:24;13.25;;;2.60;;
59854;SDS011;45732;52.850;6.896;2022-12-29T13:16:41;15.80;;;2.92;;
59854;SDS011;45732;52.850;6.896;2022-12-29T13:19:51;9.60;;;2.17;;
59854;SDS011;45732;52.850;6.896;2022-12-29T13:27:59;11.80;;;2.17;;
59854;SDS011;45732;52.850;6.896;2022-12-29T13:30:45;13.07;;;2.60;;
59854;SDS011;45732;52.850;6.896;2022-12-29T13:42:03;14.20;;;2.92;;
59854;SDS011;45732;52.850;6.896;2022-12-29T13:44:25;12.00;;;2.40;;
59854;SDS011;45732;52.850;6.896;2022-12-29T13:46:52;14.55;;;2.75;;
59854;SDS011;45732;52.850;6.896;2022-12-29T13:49:20;15.55;;;2.67;;
59854;SDS011;45732;52.850;6.896;2022-12-29T13:56:52;16.33;;;2.92;;
59854;SDS011;45732;52.850;6.896;2022-12-29T13:59:44;14.80;;;2.92;;
59854;SDS011;45732;52.850;6.896;2022-12-29T14:05:31;11.55;;;2.80;;
59854;SDS011;45732;52.850;6.896;2022-12-29T14:07:58;11.55;;;2.88;;
59854;SDS011;45732;52.850;6.896;2022-12-29T14:13:09;13.63;;;2.92;;
59854;SDS011;45732;52.850;6.896;2022-12-29T14:15:42;14.85;;;2.78;;
59854;SDS011;45732;52.850;6.896;2022-12-29T14:21:26;13.45;;;2.50;;
59854;SDS011;45732;52.850;6.896;2022-12-29T14:23:40;14.07;;;2.83;;
59854;SDS011;45732;52.850;6.896;2022-12-29T14:28:32;12.98;;;3.03;;
59854;SDS011;45732;52.850;6.896;2022-12-29T14:31:05;13.77;;;3.00;;
59854;SDS011;45732;52.850;6.896;2022-12-29T14:33:40;14.93;;;2.83;;
59854;SDS011;45732;52.850;6.896;2022-12-29T14:42:18;16.48;;;3.50;;
59854;SDS011;45732;52.850;6.896;2022-12-29T14:44:51;16.40;;;3.20;;
59854;SDS011;45732;52.850;6.896;2022-12-29T14:49:57;13.52;;;3.53;;
59854;SDS011;45732;52.850;6.896;2022-12-29T14:52:30;18.83;;;3.30;;
59854;SDS011;45732;52.850;6.896;2022-12-29T14:54:57;14.30;;;2.67;;
59854;SDS011;45732;52.850;6.896;2022-12-29T14:57:33;12.38;;;2.65;;
59854;SDS011;45732;52.850;6.896;2022-12-29T15:00:07;12.95;;;2.83;;
59854;SDS011;45732;52.850;6.896;2022-12-29T15:02:38;12.93;;;2.67;;
59854;SDS011;45732;52.850;6.896;2022-12-29T15:05:20;18.48;;;2.92;;
59854;SDS011;45732;52.850;6.896;2022-12-29T15:07:53;12.88;;;2.80;;
59854;SDS011;45732;52.850;6.896;2022-12-29T15:10:21;11.50;;;2.45;;
59854;SDS011;45732;52.850;6.896;2022-12-29T15:12:52;14.77;;;2.97;;
59854;SDS011;45732;52.850;6.896;2022-12-29T15:15:21;14.40;;;3.15;;
59854;SDS011;45732;52.850;6.896;2022-12-29T15:17:48;13.27;;;2.83;;
59854;SDS011;45732;52.850;6.896;2022-12-29T15:22:49;10.43;;;2.88;;
59854;SDS011;45732;52.850;6.896;2022-12-29T15:25:20;16.30;;;2.53;;
59854;SDS011;45732;52.850;6.896;2022-12-29T15:27:52;12.63;;;2.35;;
59854;SDS011;45732;52.850;6.896;2022-12-29T15:30:22;13.25;;;2.65;;
59854;SDS011;45732;52.850;6.896;2022-12-29T15:32:48;16.45;;;2.95;;
59854;SDS011;45732;52.850;6.896;2022-12-29T15:35:36;13.50;;;2.85;;
59854;SDS011;45732;52.850;6.896;2022-12-29T15:38:21;16.55;;;2.95;;
59854;SDS011;45732;52.850;6.896;2022-12-29T15:41:05;14.05;;;3.28;;
59854;SDS011;45732;52.850;6.896;2022-12-29T15:46:38;14.85;;;3.25;;
59854;SDS011;45732;52.850;6.896;2022-12-29T15:49:05;12.52;;;2.95;;
59854;SDS011;45732;52.850;6.896;2022-12-29T15:51:38;13.40;;;3.03;;
59854;SDS011;45732;52.850;6.896;2022-12-29T15:54:05;15.30;;;3.80;;
59854;SDS011;45732;52.850;6.896;2022-12-29T15:56:39;14.32;;;3.38;;
59854;SDS011;45732;52.850;6.896;2022-12-29T15:59:17;13.88;;;3.35;;
59854;SDS011;45732;52.850;6.896;2022-12-29T16:01:49;17.90;;;3.42;;
59854;SDS011;45732;52.850;6.896;2022-12-29T16:04:16;14.63;;;3.17;;
59854;SDS011;45732;52.850;6.896;2022-12-29T16:06:54;14.02;;;3.55;;
59854;SDS011;45732;52.850;6.896;2022-12-29T16:09:41;16.35;;;3.65;;
59854;SDS011;45732;52.850;6.896;2022-12-29T16:12:16;15.48;;;4.00;;
59854;SDS011;45732;52.850;6.896;2022-12-29T16:14:48;17.73;;;4.32;;
59854;SDS011;45732;52.850;6.896;2022-12-29T16:17:20;14.27;;;3.25;;
59854;SDS011;45732;52.850;6.896;2022-12-29T16:19:56;12.55;;;3.20;;
59854;SDS011;45732;52.850;6.896;2022-12-29T16:22:31;10.10;;;2.70;;
59854;SDS011;45732;52.850;6.896;2022-12-29T16:24:59;10.90;;;2.90;;
59854;SDS011;45732;52.850;6.896;2022-12-29T16:30:26;12.45;;;3.03;;
59854;SDS011;45732;52.850;6.896;2022-12-29T16:32:57;11.70;;;3.03;;
59854;SDS011;45732;52.850;6.896;2022-12-29T16:35:29;8.75;;;2.63;;
59854;SDS011;45732;52.850;6.896;2022-12-29T16:40:38;8.93;;;2.83;;
59854;SDS011;45732;52.850;6.896;2022-12-29T16:43:20;13.85;;;3.03;;
59854;SDS011;45732;52.850;6.896;2022-12-29T16:48:47;12.82;;;3.70;;
59854;SDS011;45732;52.850;6.896;2022-12-29T16:51:16;12.38;;;3.58;;
59854;SDS011;45732;52.850;6.896;2022-12-29T16:53:53;10.80;;;3.40;;
59854;SDS011;45732;52.850;6.896;2022-12-29T16:56:23;10.88;;;3.00;;
59854;SDS011;45732;52.850;6.896;2022-12-29T16:59:05;11.48;;;2.97;;
59854;SDS011;45732;52.850;6.896;2022-12-29T17:01:39;10.98;;;2.90;;
59854;SDS011;45732;52.850;6.896;2022-12-29T17:04:06;11.25;;;3.20;;
59854;SDS011;45732;52.850;6.896;2022-12-29T17:06:35;8.75;;;2.67;;
59854;SDS011;45732;52.850;6.896;2022-12-29T17:09:01;11.93;;;2.83;;
59854;SDS011;45732;52.850;6.896;2022-12-29T17:11:27;9.98;;;3.10;;
59854;SDS011;45732;52.850;6.896;2022-12-29T17:14:20;9.48;;;2.67;;
59854;SDS011;45732;52.850;6.896;2022-12-29T17:16:52;9.98;;;2.70;;
59854;SDS011;45732;52.850;6.896;2022-12-29T17:19:19;7.88;;;2.30;;
59854;SDS011;45732;52.850;6.896;2022-12-29T17:21:49;7.35;;;2.65;;
59854;SDS011;45732;52.850;6.896;2022-12-29T17:24:18;9.65;;;2.67;;
59854;SDS011;45732;52.850;6.896;2022-12-29T17:26:46;8.18;;;3.00;;
59854;SDS011;45732;52.850;6.896;2022-12-29T17:29:18;8.18;;;2.60;;
59854;SDS011;45732;52.850;6.896;2022-12-29T17:31:56;7.38;;;2.38;;
59854;SDS011;45732;52.850;6.896;2022-12-29T17:34:22;9.00;;;2.90;;
59854;SDS011;45732;52.850;6.896;2022-12-29T17:36:49;11.32;;;3.83;;
59854;SDS011;45732;52.850;6.896;2022-12-29T17:39:14;7.97;;;3.20;;
59854;SDS011;45732;52.850;6.896;2022-12-29T17:41:40;11.52;;;3.58;;
59854;SDS011;45732;52.850;6.896;2022-12-29T17:44:06;11.77;;;4.55;;
59854;SDS011;45732;52.850;6.896;2022-12-29T17:46:32;10.55;;;3.72;;
59854;SDS011;45732;52.850;6.896;2022-12-29T17:48:58;10.10;;;4.18;;
59854;SDS011;45732;52.850;6.896;2022-12-29T17:51:24;11.93;;;4.00;;
59854;SDS011;45732;52.850;6.896;2022-12-29T17:53:50;12.20;;;4.65;;
59854;SDS011;45732;52.850;6.896;2022-12-29T17:56:16;11.45;;;4.10;;
59854;SDS011;45732;52.850;6.896;2022-12-29T17:58:42;9.90;;;4.70;;
59854;SDS011;45732;52.850;6.896;2022-12-29T18:01:10;12.40;;;5.20;;